Time;durP1;ratioP1;P1;durP2;ratioP2;P2;SDS_P1;SDS_P2;PMS_P1;PMS_P2;Temp;Humidity;BMP_temperature;BMP_pressure;BME280_temperature;BME280_humidity;BME280_pressure;Samples;Min_cycle;Max_cycle;Signal;HPM_P1;HPM_P2
2023/01/04 00:01:49;;;;;;;15.85;10.85;;;;;;;;;;5008313;28;20052;-81
2023/01/04 00:04:41;;;;;;;12.02;9.90;;;;;;;;;;4993490;28;20393;-79
2023/01/04 00:07:46;;;;;;;13.80;9.80;;;;;;;;;;4965163;28;20129;-80
2023/01/04 00:10:37;;;;;;;11.15;10.05;;;;;;;;;;4956377;28;20081;-80
2023/01/04 00:14:09;;;;;;;17.38;10.60;;;;;;;;;;4874243;29;20051;-78
2023/01/04 00:21:44;;;;;;;15.38;11.27;;;;;;;;;;4818438;29;20049;-80
2023/01/04 00:25:35;;;;;;;9.52;8.52;;;;;;;;;;4818224;29;20095;-80
2023/01/04 00:31:40;;;;;;;10.23;9.13;;;;;;;;;;4818475;29;20050;-79
2023/01/04 00:34:29;;;;;;;12.32;10.20;;;;;;;;;;4817749;29;20125;-80
2023/01/04 00:41:11;;;;;;;9.52;8.63;;;;;;;;;;4784982;29;20519;-80
2023/01/04 00:53:05;;;;;;;11.20;10.07;;;;;;;;;;4781809;29;20717;-78
2023/01/04 01:05:29;;;;;;;12.15;10.95;;;;;;;;;;4730285;30;20123;-80
2023/01/04 01:09:40;;;;;;;10.85;9.82;;;;;;;;;;4732867;30;20063;-80
2023/01/04 01:16:26;;;;;;;7.80;7.15;;;;;;;;;;5080933;27;20424;-77
2023/01/04 01:18:52;;;;;;;10.55;9.43;;;;;;;;;;5082118;28;20043;-77
2023/01/04 01:21:20;;;;;;;10.13;8.98;;;;;;;;;;5081423;28;20040;-77
2023/01/04 01:23:47;;;;;;;7.35;6.68;;;;;;;;;;5077080;28;20050;-76
2023/01/04 01:26:16;;;;;;;10.65;9.63;;;;;;;;;;5077944;28;20402;-77
2023/01/04 01:28:42;;;;;;;12.00;10.02;;;;;;;;;;5081826;28;20047;-76
2023/01/04 01:31:11;;;;;;;10.55;8.63;;;;;;;;;;5077359;28;20059;-77
2023/01/04 01:33:37;;;;;;;;;;;;;;;;;;5084535;28;20036;-77
2023/01/04 01:36:04;;;;;;;12.43;10.70;;;;;;;;;;5076444;28;19918;-77
2023/01/04 01:38:30;;;;;;;8.50;7.63;;;;;;;;;;5073780;28;20150;-77
2023/01/04 01:40:55;;;;;;;14.73;10.95;;;;;;;;;;5075231;28;20396;-76
2023/01/04 01:43:42;;;;;;;10.65;9.63;;;;;;;;;;5078687;28;20032;-76
2023/01/04 01:46:09;;;;;;;16.35;11.48;;;;;;;;;;5081604;28;20035;-77
2023/01/04 01:48:34;;;;;;;13.88;11.02;;;;;;;;;;5076169;28;20372;-77
2023/01/04 01:51:02;;;;;;;10.88;9.60;;;;;;;;;;5078999;28;20785;-77
2023/01/04 01:53:30;;;;;;;9.88;8.95;;;;;;;;;;5079351;28;20047;-76
2023/01/04 01:55:57;;;;;;;11.23;10.02;;;;;;;;;;5077970;28;20383;-76
2023/01/04 01:58:40;;;;;;;11.73;10.38;;;;;;;;;;5069791;28;20044;-78
2023/01/04 02:01:07;;;;;;;17.80;10.98;;;;;;;;;;5081172;28;20036;-76
2023/01/04 02:03:39;;;;;;;13.88;10.35;;;;;;;;;;5079876;28;20434;-77
2023/01/04 02:06:08;;;;;;;16.23;12.05;;;;;;;;;;5077639;28;20395;-77
2023/01/04 02:08:36;;;;;;;15.60;12.70;;;;;;;;;;5076401;28;20619;-76
2023/01/04 02:11:03;;;;;;;15.70;11.68;;;;;;;;;;5076000;28;20036;-76
2023/01/04 02:16:18;;;;;;;10.48;9.57;;;;;;;;;;5075008;28;20491;-76
2023/01/04 02:19:04;;;;;;;21.60;13.85;;;;;;;;;;5080372;28;20036;-76
2023/01/04 02:22:06;;;;;;;16.15;14.13;;;;;;;;;;5077072;28;20077;-76
2023/01/04 02:24:58;;;;;;;20.13;15.73;;;;;;;;;;5073380;28;20044;-75
2023/01/04 02:27:39;;;;;;;22.88;17.77;;;;;;;;;;5064431;28;20114;-78
2023/01/04 02:30:33;;;;;;;19.60;15.43;;;;;;;;;;5067558;28;20040;-77
2023/01/04 02:33:11;;;;;;;21.75;17.10;;;;;;;;;;5065232;28;20484;-77
2023/01/04 02:36:09;;;;;;;15.30;13.25;;;;;;;;;;5062058;28;20075;-76
2023/01/04 02:38:58;;;;;;;14.73;10.80;;;;;;;;;;5061600;28;20067;-76
2023/01/04 02:41:28;;;;;;;;;;;;;;;;;;5063285;28;20063;-77
2023/01/04 02:46:59;;;;;;;11.18;9.85;;;;;;;;;;5065738;28;20131;-76
2023/01/04 02:52:08;;;;;;;12.27;11.00;;;;;;;;;;5064555;28;20036;-77
2023/01/04 02:54:34;;;;;;;14.50;11.80;;;;;;;;;;5065283;28;20042;-77
2023/01/04 02:57:23;;;;;;;16.17;12.60;;;;;;;;;;5066908;28;20036;-77
2023/01/04 02:59:57;;;;;;;13.30;11.90;;;;;;;;;;5061744;28;20039;-77
2023/01/04 03:06:16;;;;;;;7.07;6.47;;;;;;;;;;5042458;28;20617;-76
2023/01/04 03:09:06;;;;;;;9.73;8.73;;;;;;;;;;5040414;28;20052;-77
2023/01/04 03:14:42;;;;;;;6.80;6.32;;;;;;;;;;5043756;28;20044;-77
2023/01/04 03:17:11;;;;;;;11.25;9.98;;;;;;;;;;5043749;28;20049;-77
2023/01/04 03:19:55;;;;;;;12.63;11.05;;;;;;;;;;5041676;28;20044;-77
2023/01/04 03:36:57;;;;;;;16.48;11.52;;;;;;;;;;5055606;28;20388;-78
2023/01/04 03:48:39;;;;;;;10.25;9.30;;;;;;;;;;5067732;28;20059;-78
2023/01/04 03:51:13;;;;;;;9.07;8.23;;;;;;;;;;5069360;28;20040;-78
2023/01/04 03:53:56;;;;;;;7.65;6.95;;;;;;;;;;5057416;28;20054;-77
2023/01/04 03:56:23;;;;;;;12.63;11.13;;;;;;;;;;5066159;28;20036;-77
2023/01/04 03:58:50;;;;;;;10.68;9.57;;;;;;;;;;5068169;28;20041;-77
2023/01/04 04:01:18;;;;;;;10.55;9.45;;;;;;;;;;5070829;28;20411;-77
2023/01/04 04:09:12;;;;;;;9.50;7.15;;;;;;;;;;5062027;28;20033;-77
2023/01/04 04:11:37;;;;;;;7.70;7.03;;;;;;;;;;5054588;28;20822;-77
2023/01/04 04:14:03;;;;;;;14.25;10.45;;;;;;;;;;5061028;28;20484;-77
2023/01/04 04:16:29;;;;;;;12.25;10.05;;;;;;;;;;5060279;28;20383;-78
2023/01/04 04:18:54;;;;;;;13.00;10.32;;;;;;;;;;5062655;28;20507;-77
2023/01/04 04:21:20;;;;;;;12.10;10.23;;;;;;;;;;5060221;28;20032;-77
2023/01/04 04:23:46;;;;;;;12.35;10.40;;;;;;;;;;5062090;28;20028;-77
2023/01/04 04:26:11;;;;;;;11.02;9.93;;;;;;;;;;5061926;28;20036;-78
2023/01/04 04:28:38;;;;;;;11.50;8.68;;;;;;;;;;5060520;28;20495;-77
2023/01/04 04:31:04;;;;;;;7.88;7.28;;;;;;;;;;5062530;28;20455;-77
2023/01/04 04:33:30;;;;;;;10.45;9.32;;;;;;;;;;5064828;28;20122;-77
2023/01/04 04:35:55;;;;;;;9.32;8.38;;;;;;;;;;5059663;28;20135;-77
2023/01/04 04:38:21;;;;;;;12.30;9.80;;;;;;;;;;5062881;28;20039;-77
2023/01/04 04:43:32;;;;;;;14.85;11.73;;;;;;;;;;5062712;28;20032;-77
2023/01/04 04:45:58;;;;;;;21.73;13.02;;;;;;;;;;5062341;28;20050;-76
2023/01/04 04:48:24;;;;;;;14.15;10.43;;;;;;;;;;5085898;28;20040;-77
2023/01/04 04:50:49;;;;;;;9.75;8.77;;;;;;;;;;5089330;28;20036;-75
2023/01/04 04:53:15;;;;;;;8.63;7.82;;;;;;;;;;5063318;28;20040;-75
2023/01/04 04:55:41;;;;;;;8.40;7.57;;;;;;;;;;5063228;28;20483;-77
2023/01/04 04:58:06;;;;;;;7.43;6.80;;;;;;;;;;5062147;28;20063;-76
2023/01/04 05:00:32;;;;;;;8.23;7.40;;;;;;;;;;5064479;28;20507;-77
2023/01/04 05:02:59;;;;;;;9.20;8.40;;;;;;;;;;5058451;28;20036;-77
2023/01/04 05:05:24;;;;;;;12.38;11.00;;;;;;;;;;5062687;28;20103;-77
2023/01/04 05:07:50;;;;;;;12.82;9.18;;;;;;;;;;5058081;28;20115;-77
2023/01/04 05:10:16;;;;;;;7.15;6.57;;;;;;;;;;5065043;28;20118;-77
2023/01/04 05:12:59;;;;;;;9.23;8.35;;;;;;;;;;5060168;28;20082;-78
2023/01/04 05:15:43;;;;;;;8.65;7.68;;;;;;;;;;5066619;28;20078;-77
2023/01/04 05:18:11;;;;;;;11.93;9.80;;;;;;;;;;5060432;28;20045;-77
2023/01/04 05:20:37;;;;;;;10.88;9.38;;;;;;;;;;5060152;28;20146;-78
2023/01/04 05:23:03;;;;;;;14.77;10.30;;;;;;;;;;5065767;28;20126;-77
2023/01/04 05:25:29;;;;;;;14.07;11.57;;;;;;;;;;5064504;28;20040;-78
2023/01/04 05:27:55;;;;;;;11.30;10.00;;;;;;;;;;5062603;28;20557;-77
2023/01/04 05:33:05;;;;;;;13.35;11.30;;;;;;;;;;5064977;28;20483;-77
2023/01/04 05:35:30;;;;;;;13.60;11.73;;;;;;;;;;5059233;28;20044;-77
2023/01/04 05:37:56;;;;;;;10.23;7.22;;;;;;;;;;5062914;28;20041;-77
2023/01/04 05:40:22;;;;;;;12.38;10.02;;;;;;;;;;5063946;28;20064;-77
2023/01/04 05:42:48;;;;;;;16.10;11.52;;;;;;;;;;5063216;28;20107;-77
2023/01/04 05:45:14;;;;;;;13.38;10.48;;;;;;;;;;5063472;28;20110;-77
2023/01/04 05:47:40;;;;;;;11.32;10.13;;;;;;;;;;5064235;28;20072;-77
2023/01/04 05:50:07;;;;;;;10.45;9.27;;;;;;;;;;5063036;28;20097;-77
2023/01/04 05:52:33;;;;;;;10.18;8.98;;;;;;;;;;5065170;28;20044;-77
2023/01/04 05:54:59;;;;;;;11.15;9.32;;;;;;;;;;5053973;28;20549;-77
2023/01/04 05:57:24;;;;;;;18.23;13.55;;;;;;;;;;5066764;28;20519;-77
2023/01/04 05:59:50;;;;;;;13.43;11.52;;;;;;;;;;5065536;28;20063;-77
2023/01/04 06:02:21;;;;;;;15.30;11.45;;;;;;;;;;5062744;28;20087;-77
2023/01/04 06:04:47;;;;;;;13.55;11.52;;;;;;;;;;5063746;28;20039;-78
2023/01/04 06:07:13;;;;;;;13.73;11.52;;;;;;;;;;5066992;28;20111;-77
2023/01/04 06:09:39;;;;;;;16.85;12.60;;;;;;;;;;5064210;28;20075;-77
2023/01/04 06:12:05;;;;;;;19.45;13.05;;;;;;;;;;5068956;28;20064;-77
2023/01/04 06:14:31;;;;;;;17.30;13.38;;;;;;;;;;5067815;28;20125;-77
2023/01/04 06:16:56;;;;;;;14.77;11.40;;;;;;;;;;5065016;28;20507;-78
2023/01/04 06:19:22;;;;;;;12.45;10.18;;;;;;;;;;5069651;28;20064;-78
2023/01/04 06:21:48;;;;;;;26.83;17.40;;;;;;;;;;5068709;28;20035;-77
2023/01/04 06:24:13;;;;;;;14.90;13.20;;;;;;;;;;5063637;28;20062;-77
2023/01/04 06:26:39;;;;;;;11.93;10.13;;;;;;;;;;5067647;28;20246;-77
2023/01/04 06:29:04;;;;;;;14.52;11.93;;;;;;;;;;5066784;28;20037;-77
2023/01/04 06:31:30;;;;;;;10.13;9.13;;;;;;;;;;5068028;28;20044;-77
2023/01/04 06:33:56;;;;;;;12.90;9.63;;;;;;;;;;5064393;28;20054;-77
2023/01/04 06:36:21;;;;;;;11.35;9.73;;;;;;;;;;5066136;28;20064;-78
2023/01/04 06:38:50;;;;;;;11.35;9.52;;;;;;;;;;5069154;28;20453;-77
2023/01/04 06:41:15;;;;;;;8.40;7.60;;;;;;;;;;5066683;28;20036;-77
2023/01/04 06:43:41;;;;;;;11.45;10.25;;;;;;;;;;5065190;28;20287;-78
2023/01/04 06:46:06;;;;;;;12.80;10.40;;;;;;;;;;5065895;28;20098;-78
2023/01/04 06:48:32;;;;;;;9.45;8.55;;;;;;;;;;5067861;28;20042;-78
2023/01/04 06:50:58;;;;;;;9.18;8.27;;;;;;;;;;5062177;28;20044;-77
2023/01/04 06:53:23;;;;;;;10.10;8.98;;;;;;;;;;5064076;28;20051;-77
2023/01/04 06:55:49;;;;;;;10.65;9.10;;;;;;;;;;5065319;28;20032;-77
2023/01/04 06:58:14;;;;;;;10.38;9.23;;;;;;;;;;5064459;28;20166;-77
2023/01/04 07:00:40;;;;;;;11.60;10.05;;;;;;;;;;5065460;28;20494;-78
2023/01/04 07:03:06;;;;;;;12.63;9.30;;;;;;;;;;5070165;28;20021;-77
2023/01/04 07:05:31;;;;;;;14.55;11.05;;;;;;;;;;5072414;28;20506;-77
2023/01/04 07:08:03;;;;;;;13.70;11.32;;;;;;;;;;5068059;28;20040;-77
2023/01/04 07:10:29;;;;;;;10.13;9.23;;;;;;;;;;5071537;28;20032;-78
2023/01/04 07:12:55;;;;;;;11.55;9.07;;;;;;;;;;5067573;28;20119;-77
2023/01/04 07:15:20;;;;;;;10.40;9.35;;;;;;;;;;5065980;28;20086;-77
2023/01/04 07:17:47;;;;;;;8.60;7.80;;;;;;;;;;5069234;28;20040;-77
2023/01/04 07:20:12;;;;;;;13.75;10.75;;;;;;;;;;5067567;28;20100;-78
2023/01/04 07:22:38;;;;;;;10.93;9.80;;;;;;;;;;5069524;28;20063;-76
2023/01/04 07:25:04;;;;;;;17.38;12.43;;;;;;;;;;5067570;28;20025;-77
2023/01/04 07:27:30;;;;;;;16.70;12.82;;;;;;;;;;5069306;28;20147;-77
2023/01/04 07:29:55;;;;;;;14.07;11.57;;;;;;;;;;5066884;28;20507;-77
2023/01/04 07:32:21;;;;;;;15.23;11.20;;;;;;;;;;5067659;28;20036;-77
2023/01/04 07:34:46;;;;;;;10.43;9.40;;;;;;;;;;5066936;28;20024;-78
2023/01/04 07:37:13;;;;;;;11.55;10.35;;;;;;;;;;5068727;28;20032;-77
2023/01/04 07:39:39;;;;;;;84.35;31.70;;;;;;;;;;5064567;28;20745;-78
2023/01/04 07:42:05;;;;;;;16.00;11.13;;;;;;;;;;5069660;28;20060;-77
2023/01/04 07:44:30;;;;;;;39.17;17.38;;;;;;;;;;5066454;28;20115;-78
2023/01/04 07:46:56;;;;;;;36.85;16.45;;;;;;;;;;5070591;28;20024;-78
2023/01/04 07:49:22;;;;;;;11.75;10.27;;;;;;;;;;5077230;28;20036;-78
2023/01/04 07:51:48;;;;;;;12.32;9.70;;;;;;;;;;5069723;28;20362;-79
2023/01/04 07:54:15;;;;;;;8.07;7.45;;;;;;;;;;5084597;28;20123;-78
2023/01/04 07:56:41;;;;;;;9.48;8.57;;;;;;;;;;5064550;28;20131;-79
2023/01/04 07:59:08;;;;;;;7.30;6.70;;;;;;;;;;5056289;28;20767;-79
2023/01/04 08:01:36;;;;;;;9.43;8.52;;;;;;;;;;5068510;28;20092;-79
2023/01/04 08:04:02;;;;;;;7.57;6.97;;;;;;;;;;5071899;28;20032;-79
2023/01/04 08:06:28;;;;;;;7.88;7.22;;;;;;;;;;5072675;28;20040;-79
2023/01/04 08:08:53;;;;;;;9.35;8.07;;;;;;;;;;5071973;28;20044;-79
2023/01/04 08:11:21;;;;;;;9.60;7.80;;;;;;;;;;5074658;28;20040;-79
2023/01/04 08:13:47;;;;;;;8.63;7.93;;;;;;;;;;5072034;28;20096;-80
2023/01/04 08:16:26;;;;;;;10.50;9.43;;;;;;;;;;5070787;28;20056;-80
2023/01/04 08:18:56;;;;;;;10.90;10.00;;;;;;;;;;5069888;28;20116;-80
2023/01/04 08:21:23;;;;;;;10.63;9.63;;;;;;;;;;5069876;28;20040;-80
2023/01/04 08:23:49;;;;;;;10.35;9.43;;;;;;;;;;5070283;28;20040;-80
2023/01/04 08:26:16;;;;;;;9.50;8.55;;;;;;;;;;5051725;28;20041;-80
2023/01/04 08:28:42;;;;;;;11.65;9.20;;;;;;;;;;5076326;28;20028;-79
2023/01/04 08:31:16;;;;;;;10.75;9.77;;;;;;;;;;5078712;28;20571;-80
2023/01/04 08:33:42;;;;;;;10.43;9.35;;;;;;;;;;5074750;28;20409;-80
2023/01/04 08:36:11;;;;;;;7.75;7.10;;;;;;;;;;5073131;28;20491;-79
2023/01/04 08:38:37;;;;;;;8.90;8.23;;;;;;;;;;5075209;28;20041;-80
2023/01/04 08:41:03;;;;;;;12.52;11.23;;;;;;;;;;5074932;28;20044;-81
2023/01/04 08:43:29;;;;;;;11.60;9.63;;;;;;;;;;5074687;28;20075;-79
2023/01/04 08:45:55;;;;;;;10.05;9.15;;;;;;;;;;5069784;28;20028;-80
2023/01/04 08:48:20;;;;;;;9.85;8.93;;;;;;;;;;5071038;28;20037;-80
2023/01/04 08:50:46;;;;;;;10.65;9.65;;;;;;;;;;5073455;28;20036;-81
2023/01/04 08:53:11;;;;;;;10.75;8.55;;;;;;;;;;5078083;28;20123;-80
2023/01/04 08:55:37;;;;;;;10.38;9.48;;;;;;;;;;5086081;28;20118;-80
2023/01/04 08:58:02;;;;;;;8.45;7.68;;;;;;;;;;5092236;28;20033;-80
2023/01/04 09:00:28;;;;;;;8.15;7.53;;;;;;;;;;5091336;28;20052;-79
2023/01/04 09:02:54;;;;;;;13.82;10.65;;;;;;;;;;5082424;28;20040;-80
2023/01/04 09:05:20;;;;;;;10.20;9.27;;;;;;;;;;5075747;28;20097;-79
2023/01/04 09:07:45;;;;;;;8.40;7.72;;;;;;;;;;5078489;28;20039;-79
2023/01/04 09:10:11;;;;;;;8.25;7.63;;;;;;;;;;5077331;28;20048;-78
2023/01/04 09:12:37;;;;;;;10.10;9.25;;;;;;;;;;5076908;28;20028;-78
2023/01/04 09:15:03;;;;;;;8.88;7.85;;;;;;;;;;5074943;28;20028;-78
2023/01/04 09:17:29;;;;;;;11.77;10.57;;;;;;;;;;5072965;28;20095;-78
2023/01/04 09:19:54;;;;;;;9.88;8.90;;;;;;;;;;5074422;28;20052;-79
2023/01/04 09:22:20;;;;;;;9.32;8.48;;;;;;;;;;5073427;28;20041;-78
2023/01/04 09:24:46;;;;;;;12.38;11.07;;;;;;;;;;5075048;28;20139;-78
2023/01/04 09:27:11;;;;;;;14.95;9.52;;;;;;;;;;5073868;28;20040;-79
2023/01/04 09:29:37;;;;;;;8.38;7.78;;;;;;;;;;5071985;28;20051;-79
2023/01/04 09:32:02;;;;;;;14.10;11.57;;;;;;;;;;5065641;28;20060;-79
2023/01/04 09:34:28;;;;;;;10.05;9.18;;;;;;;;;;5067094;28;20056;-79
2023/01/04 09:36:53;;;;;;;10.95;9.68;;;;;;;;;;5069916;28;20946;-79
2023/01/04 09:39:20;;;;;;;11.70;10.57;;;;;;;;;;5069977;28;20041;-78
2023/01/04 09:42:12;;;;;;;9.32;8.57;;;;;;;;;;5070418;28;20040;-78
2023/01/04 09:44:53;;;;;;;12.05;10.95;;;;;;;;;;5067339;28;20092;-79
2023/01/04 09:47:39;;;;;;;9.55;8.73;;;;;;;;;;5066365;28;20033;-78
2023/01/04 09:50:35;;;;;;;10.45;9.55;;;;;;;;;;5065441;28;20051;-78
2023/01/04 09:53:17;;;;;;;12.80;10.35;;;;;;;;;;5068070;28;20136;-79
2023/01/04 09:55:48;;;;;;;11.70;9.38;;;;;;;;;;5070972;28;20118;-79
2023/01/04 09:58:34;;;;;;;9.75;8.93;;;;;;;;;;5064128;28;20043;-79
2023/01/04 10:01:18;;;;;;;8.88;8.13;;;;;;;;;;5068396;28;20036;-80
2023/01/04 10:04:14;;;;;;;8.75;8.05;;;;;;;;;;5060294;28;20036;-77
2023/01/04 10:06:40;;;;;;;9.00;8.20;;;;;;;;;;5059182;28;20071;-79
2023/01/04 10:09:11;;;;;;;8.60;7.90;;;;;;;;;;5070116;28;20036;-79
2023/01/04 10:11:49;;;;;;;8.25;7.53;;;;;;;;;;5068060;28;20032;-80
2023/01/04 10:14:40;;;;;;;9.18;7.53;;;;;;;;;;5068183;28;20044;-77
2023/01/04 10:17:14;;;;;;;7.38;6.88;;;;;;;;;;5068218;28;20036;-77
2023/01/04 10:20:08;;;;;;;7.10;6.70;;;;;;;;;;5064800;28;20059;-79
2023/01/04 10:22:51;;;;;;;7.35;6.65;;;;;;;;;;5054827;28;20052;-78
2023/01/04 10:25:23;;;;;;;7.15;6.45;;;;;;;;;;5062975;28;20040;-78
2023/01/04 10:28:05;;;;;;;6.28;5.78;;;;;;;;;;5047208;28;20039;-78
2023/01/04 10:30:43;;;;;;;6.85;6.32;;;;;;;;;;5062692;28;20033;-79
2023/01/04 10:33:27;;;;;;;6.22;5.85;;;;;;;;;;5064995;28;20486;-79
2023/01/04 10:35:53;;;;;;;7.22;6.72;;;;;;;;;;5064817;28;20040;-78
2023/01/04 10:38:35;;;;;;;6.47;6.07;;;;;;;;;;5027975;28;20063;-78
2023/01/04 10:41:12;;;;;;;6.40;6.00;;;;;;;;;;5062584;28;20048;-78
2023/01/04 10:44:24;;;;;;;6.15;5.75;;;;;;;;;;5048765;28;20032;-77
2023/01/04 10:47:04;;;;;;;6.43;5.93;;;;;;;;;;5065853;28;20040;-78
2023/01/04 10:49:52;;;;;;;5.97;5.68;;;;;;;;;;5066616;28;20117;-79
2023/01/04 10:52:41;;;;;;;6.20;5.80;;;;;;;;;;5052565;28;20033;-79
2023/01/04 10:55:24;;;;;;;6.07;5.57;;;;;;;;;;5067942;28;20088;-78
2023/01/04 10:58:05;;;;;;;5.78;5.47;;;;;;;;;;5066137;28;20033;-78
2023/01/04 11:00:40;;;;;;;6.05;5.65;;;;;;;;;;5069702;28;20477;-78
2023/01/04 11:03:17;;;;;;;6.03;5.72;;;;;;;;;;5068204;28;20051;-78
2023/01/04 11:05:53;;;;;;;6.35;5.95;;;;;;;;;;5065890;28;20475;-78
2023/01/04 11:08:32;;;;;;;6.57;6.15;;;;;;;;;;5066652;28;20126;-78
2023/01/04 11:11:01;;;;;;;;;;;;;;;;;;5065753;28;20067;-78
2023/01/04 11:13:27;;;;;;;7.05;6.60;;;;;;;;;;5049712;28;19916;-79
2023/01/04 11:15:54;;;;;;;6.50;6.10;;;;;;;;;;5071788;28;20586;-78
2023/01/04 11:18:20;;;;;;;7.07;6.57;;;;;;;;;;5072250;28;20139;-78
2023/01/04 11:20:46;;;;;;;5.95;5.55;;;;;;;;;;5074765;28;20037;-78
2023/01/04 11:23:17;;;;;;;6.25;5.93;;;;;;;;;;5071089;28;20040;-78
2023/01/04 11:25:51;;;;;;;6.68;6.28;;;;;;;;;;5030259;28;20032;-78
2023/01/04 11:28:37;;;;;;;7.20;6.70;;;;;;;;;;5065969;28;20052;-78
2023/01/04 11:31:08;;;;;;;6.50;6.00;;;;;;;;;;5051096;28;20031;-76
2023/01/04 11:33:54;;;;;;;6.57;6.18;;;;;;;;;;5071956;28;20033;-79
2023/01/04 11:36:32;;;;;;;6.55;6.15;;;;;;;;;;5069272;28;20043;-79
2023/01/04 11:38:58;;;;;;;6.68;6.07;;;;;;;;;;5069695;28;20055;-79
2023/01/04 11:41:25;;;;;;;6.38;5.95;;;;;;;;;;5071698;28;20089;-79
2023/01/04 11:44:03;;;;;;;6.75;6.30;;;;;;;;;;5065828;28;20048;-79
2023/01/04 11:46:30;;;;;;;7.10;6.50;;;;;;;;;;5070970;28;20041;-78
2023/01/04 11:48:56;;;;;;;6.50;6.10;;;;;;;;;;5075436;28;20037;-78
2023/01/04 11:51:27;;;;;;;6.65;6.25;;;;;;;;;;5070842;28;20038;-78
2023/01/04 11:54:03;;;;;;;6.63;6.22;;;;;;;;;;5075743;28;20036;-78
2023/01/04 11:56:31;;;;;;;6.65;6.25;;;;;;;;;;5075031;28;20040;-78
2023/01/04 11:59:16;;;;;;;7.60;6.93;;;;;;;;;;5075546;28;20043;-78
2023/01/04 12:01:48;;;;;;;6.93;6.50;;;;;;;;;;5062254;28;20082;-77
2023/01/04 12:04:22;;;;;;;6.20;5.80;;;;;;;;;;5069684;28;20581;-78
2023/01/04 12:06:59;;;;;;;7.13;6.68;;;;;;;;;;5063952;28;20025;-78
2023/01/04 12:09:25;;;;;;;7.38;6.80;;;;;;;;;;5063996;28;20039;-78
2023/01/04 12:11:52;;;;;;;7.00;6.60;;;;;;;;;;5051695;22;20037;-75
2023/01/04 12:14:34;;;;;;;6.75;6.30;;;;;;;;;;5002105;28;20454;-75
2023/01/04 12:17:12;;;;;;;7.18;6.68;;;;;;;;;;5008027;28;20587;-76
2023/01/04 12:19:40;;;;;;;6.63;6.22;;;;;;;;;;5014143;28;20680;-76
2023/01/04 12:22:22;;;;;;;6.75;6.22;;;;;;;;;;5014004;28;20099;-76
2023/01/04 12:24:48;;;;;;;6.72;6.32;;;;;;;;;;5021476;23;20061;-78
2023/01/04 12:27:14;;;;;;;6.30;5.90;;;;;;;;;;4992022;28;20092;-77
2023/01/04 12:29:44;;;;;;;7.30;6.70;;;;;;;;;;4970151;28;20039;-76
2023/01/04 12:32:09;;;;;;;6.80;6.40;;;;;;;;;;4982496;28;20030;-76
2023/01/04 12:34:42;;;;;;;7.20;6.80;;;;;;;;;;4987711;28;20041;-76
2023/01/04 12:37:09;;;;;;;7.22;6.75;;;;;;;;;;4986656;28;20038;-77
2023/01/04 12:39:37;;;;;;;6.95;6.55;;;;;;;;;;4980644;28;20046;-76
2023/01/04 12:42:09;;;;;;;7.18;6.53;;;;;;;;;;4980107;28;20070;-76
2023/01/04 12:44:37;;;;;;;6.80;6.30;;;;;;;;;;4978509;28;20038;-76
2023/01/04 12:50:18;;;;;;;6.65;6.25;;;;;;;;;;4988887;28;20062;-76
2023/01/04 12:52:50;;;;;;;7.03;6.47;;;;;;;;;;4979757;28;20043;-76
2023/01/04 12:55:31;;;;;;;6.80;6.40;;;;;;;;;;4987285;28;20057;-76
2023/01/04 12:58:28;;;;;;;6.70;6.30;;;;;;;;;;4989059;28;20454;-76
2023/01/04 13:00:54;;;;;;;6.70;6.20;;;;;;;;;;4978272;28;20065;-76
2023/01/04 13:03:42;;;;;;;6.93;6.43;;;;;;;;;;4979028;28;20070;-76
2023/01/04 13:06:12;;;;;;;7.35;6.85;;;;;;;;;;4984841;28;20049;-76
2023/01/04 13:08:40;;;;;;;7.03;6.63;;;;;;;;;;4979849;28;20161;-76
2023/01/04 13:11:25;;;;;;;7.05;6.53;;;;;;;;;;4987488;28;20036;-76
2023/01/04 13:14:05;;;;;;;6.88;6.47;;;;;;;;;;4990601;28;20453;-76
2023/01/04 13:16:56;;;;;;;7.72;7.18;;;;;;;;;;4979455;28;20032;-76
2023/01/04 13:19:27;;;;;;;6.97;6.53;;;;;;;;;;4989054;28;20053;-76
2023/01/04 13:21:53;;;;;;;8.57;6.82;;;;;;;;;;4990443;28;20033;-76
2023/01/04 13:24:27;;;;;;;7.45;6.88;;;;;;;;;;4978965;28;20034;-76
2023/01/04 13:26:54;;;;;;;7.55;7.00;;;;;;;;;;4986823;28;21578;-76
2023/01/04 13:29:21;;;;;;;7.13;6.72;;;;;;;;;;4990277;28;20335;-77
2023/01/04 13:31:49;;;;;;;6.68;6.18;;;;;;;;;;4985570;28;20512;-76
2023/01/04 13:34:17;;;;;;;6.30;6.00;;;;;;;;;;4983063;28;20053;-77
2023/01/04 13:36:42;;;;;;;6.07;5.68;;;;;;;;;;4986921;28;20336;-77
2023/01/04 13:39:10;;;;;;;6.20;5.90;;;;;;;;;;4988234;28;20057;-76
2023/01/04 13:41:36;;;;;;;6.70;6.30;;;;;;;;;;4987026;28;20041;-76
2023/01/04 13:44:37;;;;;;;6.95;6.38;;;;;;;;;;4992482;28;20042;-76
2023/01/04 13:47:04;;;;;;;6.75;6.35;;;;;;;;;;4979603;28;20693;-76
2023/01/04 13:49:30;;;;;;;7.38;6.78;;;;;;;;;;4979965;28;20113;-76
2023/01/04 13:52:32;;;;;;;7.22;6.80;;;;;;;;;;4989645;28;20214;-77
2023/01/04 13:55:10;;;;;;;7.40;6.80;;;;;;;;;;4979288;28;20642;-76
2023/01/04 13:57:36;;;;;;;7.72;7.13;;;;;;;;;;4987913;28;20808;-76
2023/01/04 14:00:05;;;;;;;7.15;6.75;;;;;;;;;;4977170;28;20044;-77
2023/01/04 14:02:36;;;;;;;7.00;6.60;;;;;;;;;;4985906;28;20515;-77
2023/01/04 14:05:02;;;;;;;7.40;7.00;;;;;;;;;;4989593;28;20145;-76
2023/01/04 14:07:28;;;;;;;9.10;8.32;;;;;;;;;;4985966;28;20508;-77
2023/01/04 14:09:57;;;;;;;7.88;7.43;;;;;;;;;;4980670;28;20034;-77
2023/01/04 14:12:26;;;;;;;7.15;6.75;;;;;;;;;;4991890;28;20044;-77
2023/01/04 14:14:54;;;;;;;7.30;6.70;;;;;;;;;;4989181;28;20085;-76
2023/01/04 14:17:19;;;;;;;6.95;6.55;;;;;;;;;;4982611;28;20049;-76
2023/01/04 14:19:49;;;;;;;7.22;6.80;;;;;;;;;;4981772;28;20042;-77
2023/01/04 14:22:23;;;;;;;7.05;6.65;;;;;;;;;;4990029;28;20104;-76
2023/01/04 14:24:51;;;;;;;7.57;6.90;;;;;;;;;;4986198;28;20034;-77
2023/01/04 14:27:37;;;;;;;7.18;6.63;;;;;;;;;;4983969;28;20146;-76
2023/01/04 14:30:18;;;;;;;6.60;6.20;;;;;;;;;;4991714;28;20457;-77
2023/01/04 14:33:00;;;;;;;6.80;6.40;;;;;;;;;;4985818;28;20092;-76
2023/01/04 14:35:26;;;;;;;7.03;6.63;;;;;;;;;;4984979;28;20088;-77
2023/01/04 14:37:52;;;;;;;6.90;6.50;;;;;;;;;;4992564;28;20420;-77
2023/01/04 14:40:25;;;;;;;6.90;6.50;;;;;;;;;;4987562;28;20065;-77
2023/01/04 14:42:52;;;;;;;6.95;6.35;;;;;;;;;;4984331;28;20421;-77
2023/01/04 14:45:18;;;;;;;7.18;6.78;;;;;;;;;;4991602;28;20048;-77
2023/01/04 14:47:43;;;;;;;7.25;6.70;;;;;;;;;;4991915;28;20030;-77
2023/01/04 14:50:11;;;;;;;7.07;6.50;;;;;;;;;;4987231;28;20038;-77
2023/01/04 14:52:37;;;;;;;6.88;6.47;;;;;;;;;;4984869;28;20499;-77
2023/01/04 14:55:04;;;;;;;6.53;6.13;;;;;;;;;;4994592;28;20029;-77
2023/01/04 14:57:31;;;;;;;7.10;6.60;;;;;;;;;;4985168;28;20683;-77
2023/01/04 14:59:56;;;;;;;6.40;6.00;;;;;;;;;;4984860;28;20042;-77
2023/01/04 15:02:24;;;;;;;6.63;6.20;;;;;;;;;;4984363;28;20050;-77
2023/01/04 15:04:50;;;;;;;6.82;6.40;;;;;;;;;;4989225;28;20189;-77
2023/01/04 15:07:48;;;;;;;6.25;5.95;;;;;;;;;;4994382;28;20060;-77
2023/01/04 15:10:25;;;;;;;6.30;5.90;;;;;;;;;;4940142;28;20146;-78
2023/01/04 15:12:51;;;;;;;6.10;5.80;;;;;;;;;;4941711;28;20050;-77
2023/01/04 15:15:17;;;;;;;6.55;6.15;;;;;;;;;;4940670;28;20043;-77
2023/01/04 15:17:42;;;;;;;6.70;6.28;;;;;;;;;;4942195;28;20062;-77
2023/01/04 15:20:09;;;;;;;6.15;5.75;;;;;;;;;;4939970;28;20043;-77
2023/01/04 15:22:34;;;;;;;6.13;5.82;;;;;;;;;;4941859;28;20050;-78
2023/01/04 15:25:00;;;;;;;6.20;5.90;;;;;;;;;;4941207;28;20039;-77
2023/01/04 15:27:25;;;;;;;6.38;5.82;;;;;;;;;;4941635;28;20059;-77
2023/01/04 15:29:51;;;;;;;6.45;6.07;;;;;;;;;;4940408;28;20470;-78
2023/01/04 15:32:16;;;;;;;6.70;6.30;;;;;;;;;;4943050;28;20051;-78
2023/01/04 15:34:42;;;;;;;6.43;6.00;;;;;;;;;;4941687;28;20063;-77
2023/01/04 15:37:07;;;;;;;6.38;5.97;;;;;;;;;;4940886;28;20234;-78
2023/01/04 15:39:33;;;;;;;6.50;6.05;;;;;;;;;;4941511;28;20051;-77
2023/01/04 15:44:43;;;;;;;5.68;5.38;;;;;;;;;;4940886;28;20868;-77
2023/01/04 15:47:09;;;;;;;6.70;6.40;;;;;;;;;;4982791;28;20118;-77
2023/01/04 15:49:34;;;;;;;6.63;6.13;;;;;;;;;;4982518;28;20120;-78
2023/01/04 15:52:00;;;;;;;8.48;7.88;;;;;;;;;;4994442;28;20069;-77
2023/01/04 15:54:27;;;;;;;6.45;6.07;;;;;;;;;;4992204;28;20322;-77
2023/01/04 15:56:53;;;;;;;6.63;6.22;;;;;;;;;;4983442;28;20038;-77
2023/01/04 15:59:18;;;;;;;6.78;6.28;;;;;;;;;;4983539;28;20053;-78
2023/01/04 16:01:44;;;;;;;6.88;6.47;;;;;;;;;;4991412;28;20030;-77
2023/01/04 16:04:11;;;;;;;7.10;6.65;;;;;;;;;;4987811;28;20545;-78
2023/01/04 16:06:36;;;;;;;6.40;6.05;;;;;;;;;;4985426;28;20034;-78
2023/01/04 16:09:02;;;;;;;6.40;6.03;;;;;;;;;;4990771;28;20038;-78
2023/01/04 16:11:28;;;;;;;6.32;5.93;;;;;;;;;;4989509;28;20037;-77
2023/01/04 16:13:54;;;;;;;5.95;5.65;;;;;;;;;;4985318;28;20053;-77
2023/01/04 16:16:22;;;;;;;6.22;5.82;;;;;;;;;;4989714;28;20061;-77
2023/01/04 16:18:50;;;;;;;6.70;6.30;;;;;;;;;;4988725;28;20042;-77
2023/01/04 16:21:20;;;;;;;7.47;6.97;;;;;;;;;;4989394;28;20042;-77
2023/01/04 16:23:53;;;;;;;6.43;6.03;;;;;;;;;;4981405;28;20054;-78
2023/01/04 16:26:19;;;;;;;6.80;6.30;;;;;;;;;;4988455;28;20068;-77
2023/01/04 16:28:52;;;;;;;6.30;5.90;;;;;;;;;;4990527;28;20711;-77
2023/01/04 16:31:18;;;;;;;6.30;6.00;;;;;;;;;;4980698;28;20046;-77
2023/01/04 16:33:46;;;;;;;6.75;6.38;;;;;;;;;;4986836;28;20558;-77